Time;durP1;ratioP1;P1;durP2;ratioP2;P2;SDS_P1;SDS_P2;PMS_P1;PMS_P2;Temp;Humidity;BMP_temperature;BMP_pressure;BME280_temperature;BME280_humidity;BME280_pressure;Samples;Min_cycle;Max_cycle;Signal;HPM_P1;HPM_P2
2022/09/05 00:02:01;;;;;;;6.15;4.20;;;;;;;;;;5129200;27;20051;-66
2022/09/05 00:04:46;;;;;;;7.25;4.22;;;;;;;;;;5131346;27;20047;-66
2022/09/05 00:07:17;;;;;;;8.07;4.07;;;;;;;;;;5119342;27;20054;-66
2022/09/05 00:10:18;;;;;;;6.97;4.45;;;;;;;;;;5127114;27;20047;-67
2022/09/05 00:12:46;;;;;;;6.57;4.25;;;;;;;;;;5112883;27;20113;-67
2022/09/05 00:15:15;;;;;;;7.90;4.57;;;;;;;;;;5120905;27;20054;-67
2022/09/05 00:17:50;;;;;;;9.10;4.15;;;;;;;;;;5131894;27;20062;-67
2022/09/05 00:20:36;;;;;;;7.85;4.47;;;;;;;;;;5131330;27;20056;-66
2022/09/05 00:23:33;;;;;;;4.78;4.13;;;;;;;;;;5138987;27;20066;-67
2022/09/05 00:26:49;;;;;;;8.73;3.83;;;;;;;;;;5131727;27;20048;-67
2022/09/05 00:29:21;;;;;;;14.45;4.68;;;;;;;;;;5117355;27;20139;-66
2022/09/05 00:32:16;;;;;;;7.55;4.30;;;;;;;;;;5132152;27;20055;-66
2022/09/05 00:34:48;;;;;;;24.50;4.70;;;;;;;;;;5135604;27;20502;-66
2022/09/05 00:37:30;;;;;;;11.45;4.70;;;;;;;;;;5116750;27;20048;-67
2022/09/05 00:40:12;;;;;;;12.43;4.97;;;;;;;;;;5113478;27;20097;-67
2022/09/05 00:42:46;;;;;;;5.15;4.13;;;;;;;;;;5112250;27;20055;-67
2022/09/05 00:45:15;;;;;;;5.22;4.10;;;;;;;;;;5121803;27;20052;-67
2022/09/05 00:47:51;;;;;;;6.15;4.43;;;;;;;;;;5129224;27;20052;-67
2022/09/05 00:50:23;;;;;;;7.05;4.28;;;;;;;;;;5125177;27;20059;-67
2022/09/05 00:52:56;;;;;;;9.48;5.10;;;;;;;;;;5133088;27;20047;-67
2022/09/05 00:55:36;;;;;;;10.00;5.00;;;;;;;;;;5119229;27;20135;-67
2022/09/05 00:58:26;;;;;;;7.63;4.47;;;;;;;;;;5133959;27;20050;-67
2022/09/05 01:01:00;;;;;;;10.60;5.10;;;;;;;;;;5134782;27;20491;-66
2022/09/05 01:03:35;;;;;;;9.57;5.18;;;;;;;;;;5114851;27;20052;-66
2022/09/05 01:06:13;;;;;;;5.45;4.50;;;;;;;;;;5114841;27;20078;-66
2022/09/05 01:08:59;;;;;;;5.78;4.40;;;;;;;;;;5096445;27;20047;-65
2022/09/05 01:11:52;;;;;;;8.77;4.90;;;;;;;;;;5120391;27;20063;-67
2022/09/05 01:14:36;;;;;;;6.75;5.68;;;;;;;;;;5133587;27;20048;-66
2022/09/05 01:17:22;;;;;;;5.75;5.15;;;;;;;;;;5134257;27;20475;-66
2022/09/05 01:20:00;;;;;;;8.52;4.70;;;;;;;;;;5130689;27;20047;-67
2022/09/05 01:22:54;;;;;;;8.05;5.18;;;;;;;;;;5135137;27;20066;-67
2022/09/05 01:25:29;;;;;;;5.72;5.20;;;;;;;;;;5131636;27;20525;-67
2022/09/05 01:28:01;;;;;;;7.50;5.75;;;;;;;;;;5133008;27;20059;-67
2022/09/05 01:31:03;;;;;;;6.22;5.28;;;;;;;;;;5118809;27;20408;-67
2022/09/05 01:33:33;;;;;;;5.45;4.95;;;;;;;;;;5117850;27;20052;-67
2022/09/05 01:36:17;;;;;;;6.70;5.28;;;;;;;;;;5121737;27;20052;-67
2022/09/05 01:39:01;;;;;;;6.35;5.60;;;;;;;;;;5134485;27;20052;-67
2022/09/05 01:41:50;;;;;;;7.57;5.15;;;;;;;;;;5118189;27;20479;-67
2022/09/05 01:44:37;;;;;;;9.48;5.20;;;;;;;;;;5133764;27;20044;-67
2022/09/05 01:47:23;;;;;;;7.68;5.03;;;;;;;;;;5112916;27;20052;-67
2022/09/05 01:50:05;;;;;;;10.63;5.32;;;;;;;;;;5120689;27;20499;-67
2022/09/05 01:52:52;;;;;;;8.80;5.10;;;;;;;;;;5129865;27;20074;-67
2022/09/05 01:55:49;;;;;;;9.50;5.00;;;;;;;;;;5130407;27;20061;-67
2022/09/05 01:58:46;;;;;;;8.10;5.25;;;;;;;;;;5134364;27;20055;-67
2022/09/05 02:01:18;;;;;;;8.50;4.97;;;;;;;;;;5130390;27;20061;-68
2022/09/05 02:04:06;;;;;;;8.65;5.25;;;;;;;;;;5118468;27;20556;-67
2022/09/05 02:06:32;;;;;;;;;;;;;;;;;;5114426;28;20081;-67
2022/09/05 02:09:02;;;;;;;6.55;5.50;;;;;;;;;;5131412;27;44176;-67
2022/09/05 02:11:40;;;;;;;8.43;5.80;;;;;;;;;;5129919;27;20047;-67
2022/09/05 02:14:17;;;;;;;5.95;5.35;;;;;;;;;;5103786;28;20143;-67
2022/09/05 02:17:11;;;;;;;7.35;5.50;;;;;;;;;;5124322;27;20055;-67
2022/09/05 02:20:16;;;;;;;6.18;5.10;;;;;;;;;;5120816;27;20047;-68
2022/09/05 02:22:55;;;;;;;7.28;5.22;;;;;;;;;;5125628;27;20055;-68
2022/09/05 02:25:29;;;;;;;12.95;6.05;;;;;;;;;;5132514;27;20051;-67
2022/09/05 02:28:34;;;;;;;11.15;5.68;;;;;;;;;;5114830;27;20056;-67
2022/09/05 02:31:06;;;;;;;7.20;5.70;;;;;;;;;;5117222;27;20540;-67
2022/09/05 02:33:58;;;;;;;6.35;5.50;;;;;;;;;;5132830;27;20656;-68
2022/09/05 02:36:37;;;;;;;5.80;5.15;;;;;;;;;;5124213;27;20056;-67
2022/09/05 02:39:15;;;;;;;7.30;5.70;;;;;;;;;;5127769;27;20064;-67
2022/09/05 02:42:10;;;;;;;6.95;5.93;;;;;;;;;;5106313;28;20519;-68
2022/09/05 02:45:09;;;;;;;8.53;5.70;;;;;;;;;;5115789;27;20054;-67
2022/09/05 02:47:59;;;;;;;9.30;5.90;;;;;;;;;;5132849;27;20062;-67
2022/09/05 02:50:32;;;;;;;10.88;5.60;;;;;;;;;;5114512;27;20562;-67
2022/09/05 02:53:19;;;;;;;8.20;5.78;;;;;;;;;;5118879;27;20495;-67
2022/09/05 02:56:17;;;;;;;9.45;6.35;;;;;;;;;;5131027;27;20059;-68
2022/09/05 02:59:14;;;;;;;9.52;6.65;;;;;;;;;;5123055;27;20048;-67
2022/09/05 03:01:43;;;;;;;7.88;5.78;;;;;;;;;;5125178;27;20167;-67
2022/09/05 03:04:28;;;;;;;6.25;5.60;;;;;;;;;;5127623;27;20052;-68
2022/09/05 03:06:57;;;;;;;6.53;5.90;;;;;;;;;;5135770;27;20047;-67
2022/09/05 03:09:32;;;;;;;8.15;6.50;;;;;;;;;;5126532;27;20510;-67
2022/09/05 03:12:18;;;;;;;6.20;5.55;;;;;;;;;;5142417;27;20544;-67
2022/09/05 03:15:07;;;;;;;8.57;7.22;;;;;;;;;;5123099;27;20052;-67
2022/09/05 03:17:52;;;;;;;8.25;6.63;;;;;;;;;;5120609;27;20083;-67
2022/09/05 03:20:37;;;;;;;7.45;6.35;;;;;;;;;;5130249;27;20059;-67
2022/09/05 03:23:38;;;;;;;8.52;6.63;;;;;;;;;;5133017;27;20062;-67
2022/09/05 03:26:05;;;;;;;8.43;6.32;;;;;;;;;;5062850;28;20131;-67
2022/09/05 03:28:52;;;;;;;8.85;6.65;;;;;;;;;;5122818;27;20117;-68
2022/09/05 03:31:37;;;;;;;8.27;7.35;;;;;;;;;;5131563;27;20062;-67
2022/09/05 03:34:04;;;;;;;12.55;6.75;;;;;;;;;;5129643;27;20055;-67
2022/09/05 03:36:33;;;;;;;12.45;6.80;;;;;;;;;;5125584;27;20062;-67
2022/09/05 03:39:18;;;;;;;7.10;6.38;;;;;;;;;;5128735;27;20511;-67
2022/09/05 03:42:03;;;;;;;7.97;7.05;;;;;;;;;;5125845;27;20073;-67
2022/09/05 03:44:59;;;;;;;12.95;6.65;;;;;;;;;;5115502;27;20060;-66
2022/09/05 03:47:25;;;;;;;;;;;;;;;;;;5130114;27;20048;-66
2022/09/05 03:50:09;;;;;;;7.03;6.30;;;;;;;;;;5128920;27;42713;-66
2022/09/05 03:53:11;;;;;;;7.25;6.55;;;;;;;;;;5130400;27;20047;-66
2022/09/05 03:55:57;;;;;;;8.07;7.22;;;;;;;;;;5114056;27;20146;-66
2022/09/05 03:58:50;;;;;;;10.13;7.13;;;;;;;;;;5113928;27;20063;-66
2022/09/05 04:01:40;;;;;;;10.75;6.93;;;;;;;;;;5132553;27;20518;-66
2022/09/05 04:04:29;;;;;;;8.32;6.72;;;;;;;;;;5124553;27;20496;-66
2022/09/05 04:07:25;;;;;;;9.75;6.70;;;;;;;;;;5128214;27;20507;-66
2022/09/05 04:10:12;;;;;;;;;;;;;;;;;;5119101;27;20045;-66
2022/09/05 04:12:58;;;;;;;8.18;7.03;;;;;;;;;;5130001;27;45251;-67
2022/09/05 04:15:34;;;;;;;11.15;7.93;;;;;;;;;;5133001;27;20055;-66
2022/09/05 04:18:04;;;;;;;11.43;7.93;;;;;;;;;;5114384;27;20058;-66
2022/09/05 04:20:40;;;;;;;10.63;7.80;;;;;;;;;;5124848;27;20062;-66
2022/09/05 04:23:06;;;;;;;11.02;7.68;;;;;;;;;;5111985;28;20059;-66
2022/09/05 04:25:47;;;;;;;9.23;7.78;;;;;;;;;;5116184;27;20056;-67
2022/09/05 04:28:30;;;;;;;11.45;9.25;;;;;;;;;;5133235;27;20153;-66
2022/09/05 04:31:09;;;;;;;9.93;7.97;;;;;;;;;;5129899;27;20090;-66
2022/09/05 04:33:46;;;;;;;12.27;8.27;;;;;;;;;;5132336;27;20048;-66
2022/09/05 04:36:22;;;;;;;9.02;7.97;;;;;;;;;;5132553;27;20056;-66
2022/09/05 04:39:07;;;;;;;11.32;8.48;;;;;;;;;;5124598;27;20048;-66
2022/09/05 04:41:39;;;;;;;11.57;8.38;;;;;;;;;;5132073;27;20056;-68
2022/09/05 04:44:20;;;;;;;11.48;8.77;;;;;;;;;;5116023;27;20055;-67
2022/09/05 04:46:49;;;;;;;10.75;8.30;;;;;;;;;;5112198;28;20515;-66
2022/09/05 04:49:22;;;;;;;11.75;8.63;;;;;;;;;;5112154;28;20086;-66
2022/09/05 04:51:58;;;;;;;9.80;8.38;;;;;;;;;;5125551;27;20067;-66
2022/09/05 04:54:32;;;;;;;10.02;8.90;;;;;;;;;;5129561;27;20055;-66
2022/09/05 04:57:11;;;;;;;9.55;8.07;;;;;;;;;;5129824;27;20486;-66
2022/09/05 04:59:46;;;;;;;10.05;8.85;;;;;;;;;;5112084;27;20079;-66
2022/09/05 05:02:41;;;;;;;9.80;8.80;;;;;;;;;;5134822;27;20051;-67
2022/09/05 05:05:33;;;;;;;9.50;8.10;;;;;;;;;;5130303;27;20058;-66
2022/09/05 05:08:23;;;;;;;9.50;8.50;;;;;;;;;;5130700;27;20067;-66
2022/09/05 05:11:07;;;;;;;10.32;9.35;;;;;;;;;;5130925;27;20066;-66
2022/09/05 05:14:00;;;;;;;10.98;9.65;;;;;;;;;;5111256;27;20063;-66
2022/09/05 05:16:50;;;;;;;13.48;9.40;;;;;;;;;;5112697;27;20052;-66
2022/09/05 05:19:49;;;;;;;10.98;8.80;;;;;;;;;;5111727;28;20067;-66
2022/09/05 05:22:44;;;;;;;13.23;9.40;;;;;;;;;;5110335;27;20530;-67
2022/09/05 05:25:11;;;;;;;11.68;10.13;;;;;;;;;;5111095;28;20058;-67
2022/09/05 05:27:54;;;;;;;16.45;10.25;;;;;;;;;;5111091;28;20052;-67
2022/09/05 05:30:25;;;;;;;13.68;9.55;;;;;;;;;;5092555;28;20060;-67
2022/09/05 05:32:53;;;;;;;11.32;9.93;;;;;;;;;;5110949;27;20063;-67
2022/09/05 05:35:24;;;;;;;12.85;10.52;;;;;;;;;;5112251;27;20063;-67
2022/09/05 05:37:53;;;;;;;16.30;11.38;;;;;;;;;;5125685;27;20105;-67
2022/09/05 05:40:30;;;;;;;11.80;10.60;;;;;;;;;;5121793;27;20056;-67
2022/09/05 05:43:24;;;;;;;12.93;10.35;;;;;;;;;;5114098;27;20078;-67
2022/09/05 05:45:58;;;;;;;13.82;10.18;;;;;;;;;;5114645;27;20466;-67
2022/09/05 05:48:34;;;;;;;17.50;10.55;;;;;;;;;;5113949;28;20583;-67
2022/09/05 05:51:05;;;;;;;15.95;10.35;;;;;;;;;;5113166;27;20052;-67
2022/09/05 05:53:47;;;;;;;13.48;10.77;;;;;;;;;;5114141;28;20063;-67
2022/09/05 05:56:32;;;;;;;13.23;10.73;;;;;;;;;;5123905;27;20138;-67
2022/09/05 05:59:18;;;;;;;14.65;11.23;;;;;;;;;;5134678;27;20354;-67
2022/09/05 06:02:08;;;;;;;14.02;11.30;;;;;;;;;;5134722;27;21047;-67
2022/09/05 06:04:53;;;;;;;12.18;10.35;;;;;;;;;;5126601;27;20060;-67
2022/09/05 06:07:32;;;;;;;14.57;10.57;;;;;;;;;;5128788;27;20085;-67
2022/09/05 06:10:25;;;;;;;14.18;10.43;;;;;;;;;;5128224;27;20059;-67
2022/09/05 06:13:43;;;;;;;16.25;10.30;;;;;;;;;;5125853;27;20423;-67
2022/09/05 06:16:40;;;;;;;15.35;9.93;;;;;;;;;;5088403;27;20052;-67
2022/09/05 06:19:12;;;;;;;11.73;10.20;;;;;;;;;;5146043;27;20055;-67
2022/09/05 06:21:51;;;;;;;12.65;10.52;;;;;;;;;;5131482;27;20048;-67
2022/09/05 06:24:46;;;;;;;19.75;10.45;;;;;;;;;;5129729;27;20056;-67
2022/09/05 06:27:30;;;;;;;13.27;10.32;;;;;;;;;;5132672;27;20130;-67
2022/09/05 06:30:02;;;;;;;12.70;10.00;;;;;;;;;;5146696;27;20054;-67
2022/09/05 06:32:32;;;;;;;17.73;10.80;;;;;;;;;;5126772;27;20073;-67
2022/09/05 06:35:01;;;;;;;14.52;10.30;;;;;;;;;;5135566;27;20126;-66
2022/09/05 06:37:30;;;;;;;10.52;9.23;;;;;;;;;;5120926;27;20079;-67
2022/09/05 06:40:04;;;;;;;12.15;10.10;;;;;;;;;;5113263;27;20062;-67
2022/09/05 06:42:38;;;;;;;17.08;11.13;;;;;;;;;;5114011;27;20149;-66
2022/09/05 06:45:09;;;;;;;11.00;9.75;;;;;;;;;;5127039;27;21062;-66
2022/09/05 06:47:57;;;;;;;17.48;10.23;;;;;;;;;;5136011;27;20583;-67
2022/09/05 06:50:28;;;;;;;16.98;11.10;;;;;;;;;;5140432;27;20039;-66
2022/09/05 06:53:26;;;;;;;17.38;10.18;;;;;;;;;;5153937;27;20051;-67
2022/09/05 06:56:07;;;;;;;11.32;10.10;;;;;;;;;;5145438;27;20047;-67
2022/09/05 06:58:49;;;;;;;13.85;7.28;;;;;;;;;;5133309;27;20510;-67
2022/09/05 07:01:21;;;;;;;15.82;10.00;;;;;;;;;;5120550;27;20058;-67
2022/09/05 07:03:54;;;;;;;13.35;9.68;;;;;;;;;;5121274;27;20055;-67
2022/09/05 07:06:36;;;;;;;17.80;10.57;;;;;;;;;;5132413;27;20983;-67
2022/09/05 07:09:32;;;;;;;15.63;11.45;;;;;;;;;;5133066;27;20051;-67
2022/09/05 07:12:11;;;;;;;12.48;9.48;;;;;;;;;;5132861;27;20075;-67
2022/09/05 07:14:56;;;;;;;11.95;10.68;;;;;;;;;;5133438;27;20055;-67
2022/09/05 07:17:53;;;;;;;19.50;7.88;;;;;;;;;;5133812;27;20058;-65
2022/09/05 07:20:44;;;;;;;20.10;8.32;;;;;;;;;;5083648;28;20064;-68
2022/09/05 07:23:42;;;;;;;10.43;7.28;;;;;;;;;;5113322;27;20056;-69
2022/09/05 07:26:31;;;;;;;11.60;7.32;;;;;;;;;;5112409;28;20048;-67
2022/09/05 07:29:23;;;;;;;13.32;9.35;;;;;;;;;;5117342;27;20056;-67
2022/09/05 07:31:51;;;;;;;12.95;9.38;;;;;;;;;;5133614;27;20053;-67
2022/09/05 07:34:21;;;;;;;15.70;9.30;;;;;;;;;;5127763;27;20054;-68
2022/09/05 07:36:50;;;;;;;18.20;8.70;;;;;;;;;;5126690;27;20052;-67
2022/09/05 07:39:38;;;;;;;15.18;8.85;;;;;;;;;;5113698;27;20063;-68
2022/09/05 07:42:08;;;;;;;11.27;8.63;;;;;;;;;;5112563;27;20211;-67
2022/09/05 07:44:37;;;;;;;14.45;9.90;;;;;;;;;;5117993;27;20051;-67
2022/09/05 07:47:08;;;;;;;11.15;9.25;;;;;;;;;;5122210;27;20499;-68
2022/09/05 07:49:36;;;;;;;12.38;8.52;;;;;;;;;;5115092;27;20052;-68
2022/09/05 07:52:25;;;;;;;15.60;7.95;;;;;;;;;;5118375;27;20056;-67
2022/09/05 07:55:22;;;;;;;13.23;8.20;;;;;;;;;;5114700;27;20478;-68
2022/09/05 07:58:11;;;;;;;12.80;8.32;;;;;;;;;;5123262;27;20059;-67
2022/09/05 08:00:38;;;;;;;10.40;8.23;;;;;;;;;;5134829;27;20052;-67
2022/09/05 08:03:09;;;;;;;14.07;4.85;;;;;;;;;;5132883;27;20048;-72
2022/09/05 08:05:43;;;;;;;11.73;7.45;;;;;;;;;;5119780;27;20060;-69
2022/09/05 08:08:29;;;;;;;15.98;7.65;;;;;;;;;;5119404;27;20139;-68
2022/09/05 08:11:02;;;;;;;9.35;7.40;;;;;;;;;;5131850;27;20059;-68
2022/09/05 08:13:54;;;;;;;13.90;8.07;;;;;;;;;;5118266;27;20402;-70
2022/09/05 08:16:41;;;;;;;14.52;6.90;;;;;;;;;;5114157;28;20067;-71
2022/09/05 08:19:08;;;;;;;9.30;6.00;;;;;;;;;;5116066;27;20507;-70
2022/09/05 08:21:42;;;;;;;8.50;7.03;;;;;;;;;;5119952;27;20134;-70
2022/09/05 08:24:11;;;;;;;13.60;6.87;;;;;;;;;;5122551;27;20048;-70
2022/09/05 08:26:42;;;;;;;6.00;4.38;;;;;;;;;;5127951;27;20131;-70
2022/09/05 08:29:25;;;;;;;10.23;4.30;;;;;;;;;;5132759;27;20623;-70
2022/09/05 08:31:55;;;;;;;5.90;3.60;;;;;;;;;;5126445;27;20059;-70
2022/09/05 08:34:24;;;;;;;9.18;4.20;;;;;;;;;;5129860;27;20065;-69
2022/09/05 08:37:11;;;;;;;8.15;4.47;;;;;;;;;;5114057;27;20408;-71
2022/09/05 08:39:40;;;;;;;9.77;3.45;;;;;;;;;;5113115;27;20133;-71
2022/09/05 08:42:09;;;;;;;10.40;3.40;;;;;;;;;;5127358;27;20528;-71
2022/09/05 08:44:56;;;;;;;8.55;3.45;;;;;;;;;;5133714;27;20048;-71
2022/09/05 08:47:42;;;;;;;;;;;;;;;;;;5132837;27;20055;-71
2022/09/05 08:50:23;;;;;;;3.95;2.47;;;;;;;;;;5126832;27;45960;-71
